Startpagina
METAR-TAF:

METAR-TAF

Vliegvelden :

Luxeuil-les-Bains, Frankrijk

breedte: 47-47N, lengte: 006-21E, hoogte: 278 m

Actueel weer

Dit bericht is 31 minuten geleden gemaakt, om 13:30 UTC
Wind 7 kt uit het zuiden, variërend tussen het zuidoosten en het westen
Temperatuur 24°C
Vochtigheid 27%
Druk 1021 hPa
Zicht 10 km of meer
geen wolken onder 1500 m en geen cumulonimbus

METAR: LFSX 101330Z AUTO 19007KT 130V260 CAVOK 24/04 Q1021

Tijdstip: 16:01 (14:01 UTC)

Verwachting

Dit bericht is 6 uur en het 1 minuten geleden gemaakt, om 08:00 UTC
Verwachting geldig van 10 om 09 UTC tot 11 om 09 UTC
Wind 3 kt uit het zuidoosten
Zicht 10 km of meer
geen wolken onder 1500 m en geen cumulonimbus

TAF: LFSX 100800Z 1009/1109 13003KT CAVOK

Waarnemingen en weersverwachtingen van meer dan 4000 vliegvelden (METAR en TAF).

De beschikbare stations zijn de gele en rode punten op de kaart.

Ga met uw muis naar het station om de naam te zien.

Klik dan om waarnemingen en weersverwachtingen te zien.

kaart wijzigen: klik op de groene knoppen met een zwart kruis om in te zoomen, op de groene knop met een streepje om uit te zoomen of op de groene pijlen voor aangrenzende kaarten.


METAR-TAF: